Max Cavalier — 9HA4128 — position and weather

sailwx.info

Track history (hours):
 
Tides and Currents Weather Stations Pressure Air Temp Water Temp Dewpoint Dewpoint Depression Visibility Wind Speed Wind Dir Waves Ship Positions

Max Cavalier

Last reported at 2017-Oct-20 00:40 UTC. Time now 2017-Oct-22 12:11 UTC.
Position N 37°16' E 023°41'.

Length 147 m; draft 8.1 m.

Type: Cargo ship. MMSI: 249152000.

Date/timePositionNaut miles runAvg speedWind from/ knotsBaromVisibWave heightAir tempDewpointWater temp
2017-Oct-20 00:40N 37°16' E 023°41'210.7
2017-Oct-20 00:28N 37°18' E 023°42'810.9
2017-Oct-19 23:46N 37°25' E 023°44'311.3
2017-Oct-19 23:30N 37°28' E 023°44'611.3
2017-Oct-19 23:00N 37°34' E 023°44'611.2
2017-Oct-19 22:30N 37°40' E 023°42'611.2
2017-Oct-19 22:00N 37°45' E 023°39'510.8
2017-Oct-19 21:31N 37°50' E 023°37'510.9
2017-Oct-19 21:00N 37°55' E 023°37'3 5.0
2017-Oct-19 20:30N 37°57' E 023°36'0 0.0
2017-Oct-19 20:00N 37°57' E 023°36'0 0.0
2017-Oct-19 19:30N 37°57' E 023°36'0 0.0
2017-Oct-19 19:00N 37°57' E 023°36'0 0.0
2017-Oct-19 18:30N 37°57' E 023°36'0 0.0
2017-Oct-19 18:00N 37°57' E 023°36'0 0.0
2017-Oct-19 17:27N 37°57' E 023°36'0 0.0
2017-Oct-19 17:00N 37°57' E 023°36'0 0.0
2017-Oct-19 16:30N 37°57' E 023°36'0 0.0
2017-Oct-19 15:59N 37°57' E 023°36'0 0.0
2017-Oct-19 15:26N 37°57' E 023°36'0 0.0
2017-Oct-19 14:59N 37°57' E 023°36'0 0.0
2017-Oct-19 14:29N 37°57' E 023°36'0 0.0
2017-Oct-19 13:56N 37°57' E 023°36'0 0.0
2017-Oct-19 13:29N 37°57' E 023°36'0 0.0
2017-Oct-19 12:59N 37°57' E 023°36'0 0.0
2017-Oct-19 12:29N 37°57' E 023°36'0 0.0
2017-Oct-19 11:59N 37°57' E 023°36'0 0.0
2017-Oct-19 11:29N 37°57' E 023°36'0 0.0
2017-Oct-19 10:59N 37°57' E 023°36'0 0.0
2017-Oct-19 10:29N 37°57' E 023°36'0 0.0
2017-Oct-19 09:58N 37°57' E 023°36'0 0.0
2017-Oct-19 09:25N 37°57' E 023°36'0 0.0
2017-Oct-19 08:58N 37°57' E 023°36'0 0.0
2017-Oct-19 08:28N 37°57' E 023°36'0 0.0
2017-Oct-19 07:58N 37°57' E 023°36'0 0.0
2017-Oct-19 07:28N 37°57' E 023°36'0 0.0
2017-Oct-19 06:58N 37°57' E 023°36'0 0.0
2017-Oct-19 06:28N 37°57' E 023°36'0 0.0
2017-Oct-19 05:55N 37°57' E 023°36'0 0.0
2017-Oct-19 05:28N 37°57' E 023°36'0 0.0
2017-Oct-19 04:58N 37°57' E 023°36'0 0.0
2017-Oct-19 04:28N 37°57' E 023°36'0 0.0
2017-Oct-19 04:00N 37°57' E 023°36'0 0.0
2017-Oct-19 03:30N 37°57' E 023°36'0 0.0
2017-Oct-19 02:57N 37°57' E 023°36'0 0.0
2017-Oct-19 02:30N 37°57' E 023°36'0 0.0
2017-Oct-19 02:00N 37°57' E 023°36'0 0.0
2017-Oct-19 01:30N 37°57' E 023°36'0 0.0
2017-Oct-19 01:00N 37°57' E 023°36'0 0.0
2017-Oct-19 00:30N 37°57' E 023°36'0 0.0
2017-Oct-18 23:57N 37°57' E 023°36'0 0.0
2017-Oct-18 23:30N 37°57' E 023°36'0 0.0
2017-Oct-18 23:00N 37°57' E 023°36'0 0.0
2017-Oct-18 22:30N 37°57' E 023°36'0 0.0
2017-Oct-18 22:00N 37°57' E 023°36'0 0.0
2017-Oct-18 21:30N 37°57' E 023°36'0 0.0
2017-Oct-18 20:59N 37°57' E 023°36'0 0.0
2017-Oct-18 20:29N 37°57' E 023°36'0 0.0
2017-Oct-18 19:59N 37°57' E 023°36'0 0.0
2017-Oct-18 19:29N 37°57' E 023°36'0 0.0
2017-Oct-18 18:59N 37°57' E 023°36'0 0.0
2017-Oct-18 18:29N 37°57' E 023°36'0 0.0
2017-Oct-18 17:59N 37°57' E 023°36'0 0.0
2017-Oct-18 17:29N 37°57' E 023°36'0 0.0
2017-Oct-18 16:59N 37°57' E 023°36'0 0.0
2017-Oct-18 16:30N 37°57' E 023°36'2 3.8
2017-Oct-18 16:00N 37°56' E 023°36'1 1.7
2017-Oct-18 15:30N 37°55' E 023°35'1 2.6
2017-Oct-18 15:00N 37°54' E 023°34'2 1.8
2017-Oct-18 13:59N 37°53' E 023°32'0 0.1
2017-Oct-18 13:29N 37°53' E 023°32'0 0.0
2017-Oct-18 12:59N 37°53' E 023°32'0 0.0
2017-Oct-18 12:29N 37°53' E 023°32'0 0.0
2017-Oct-18 11:59N 37°53' E 023°32'0 0.0
2017-Oct-18 11:29N 37°53' E 023°32'0 0.0
2017-Oct-18 10:59N 37°53' E 023°32'0 0.0
2017-Oct-18 10:29N 37°53' E 023°32'0 0.3
2017-Oct-18 09:58N 37°53' E 023°32'0 0.0
2017-Oct-18 09:30N 37°53' E 023°32'0 0.0
2017-Oct-18 08:51N 37°53' E 023°32'0 0.1
2017-Oct-18 08:30N 37°53' E 023°32'0 0.1
2017-Oct-18 07:59N 37°53' E 023°32'0 0.0
2017-Oct-18 07:30N 37°53' E 023°32'0 0.0
2017-Oct-18 07:00N 37°53' E 023°32'0 0.1
2017-Oct-18 06:29N 37°53' E 023°32'0 0.1
2017-Oct-18 06:00N 37°53' E 023°32'0 0.0
2017-Oct-18 05:29N 37°53' E 023°32'0 0.1
2017-Oct-18 04:58N 37°53' E 023°32'0 0.1
2017-Oct-18 04:28N 37°53' E 023°32'0 0.0
2017-Oct-18 03:59N 37°53' E 023°32'0 0.0
2017-Oct-18 03:30N 37°53' E 023°32'0 0.0
2017-Oct-18 03:00N 37°53' E 023°32'0 0.0
2017-Oct-18 02:28N 37°53' E 023°32'0 0.1
2017-Oct-18 01:59N 37°53' E 023°32'0 0.1
2017-Oct-18 01:29N 37°53' E 023°32'0 0.1
2017-Oct-18 01:01N 37°53' E 023°32'0 0.0
2017-Oct-18 00:28N 37°53' E 023°32'0 0.0
2017-Oct-17 23:59N 37°53' E 023°32'0 0.0
2017-Oct-17 23:29N 37°53' E 023°32'0 0.1
2017-Oct-17 22:58N 37°53' E 023°32'0 0.0
2017-Oct-17 22:29N 37°53' E 023°32'0 0.1
2017-Oct-17 21:58N 37°53' E 023°32'0 0.0
2017-Oct-17 21:29N 37°53' E 023°32'0 0.0
2017-Oct-17 20:59N 37°53' E 023°32'0 0.0
2017-Oct-17 20:29N 37°53' E 023°32'0 0.0
2017-Oct-17 20:00N 37°53' E 023°32'0 0.0
2017-Oct-17 19:28N 37°53' E 023°32'0 0.0
2017-Oct-17 19:00N 37°53' E 023°32'0 0.1
2017-Oct-17 18:30N 37°53' E 023°32'0 0.0
2017-Oct-17 18:00N 37°53' E 023°32'0 0.1
2017-Oct-17 17:30N 37°53' E 023°32'0 0.0
2017-Oct-17 17:00N 37°53' E 023°32'0 0.0
2017-Oct-17 16:28N 37°53' E 023°32'0 0.0
2017-Oct-17 15:56N 37°53' E 023°32'0 0.0
2017-Oct-17 15:30N 37°53' E 023°32'0 0.0
2017-Oct-17 14:55N 37°53' E 023°32'0 0.1
2017-Oct-17 14:30N 37°53' E 023°32'0 0.0
2017-Oct-17 14:01N 37°53' E 023°32'0 0.1
2017-Oct-17 13:28N 37°53' E 023°32'0 0.1
2017-Oct-17 12:58N 37°53' E 023°32'0 0.0
2017-Oct-17 12:30N 37°53' E 023°32'0 0.0
2017-Oct-17 11:58N 37°53' E 023°32'0 0.1
2017-Oct-17 11:30N 37°53' E 023°32'0 0.0
2017-Oct-17 10:58N 37°53' E 023°32'0 0.1
2017-Oct-17 10:29N 37°53' E 023°32'0 0.0
2017-Oct-17 10:00N 37°53' E 023°32'0 0.0
2017-Oct-17 09:29N 37°53' E 023°32'0 0.0
2017-Oct-17 08:58N 37°53' E 023°32'0 0.0
2017-Oct-17 08:30N 37°53' E 023°32'0 0.1
2017-Oct-17 08:00N 37°53' E 023°32'0 0.1
2017-Oct-17 07:28N 37°53' E 023°32'0 0.1
2017-Oct-17 06:58N 37°53' E 023°32'0 0.0
2017-Oct-17 06:29N 37°53' E 023°32'0 0.1
2017-Oct-17 06:00N 37°53' E 023°32'0 0.5
2017-Oct-17 05:30N 37°53' E 023°32'2 4.6
2017-Oct-17 05:00N 37°53' E 023°35'4 7.5
2017-Oct-17 04:30N 37°51' E 023°39'5 9.8
2017-Oct-17 04:00N 37°46' E 023°42'5 9.7
2017-Oct-17 03:30N 37°42' E 023°44'5 9.2
2017-Oct-17 03:00N 37°38' E 023°45'5 9.2
2017-Oct-17 02:30N 37°33' E 023°45'404 9.1
2017-Oct-15 05:53N 36°33' E 015°24'4 9.9
2017-Oct-15 05:29N 36°33' E 015°20'510.1
2017-Oct-15 05:00N 36°33' E 015°13'610.1
2017-Oct-15 04:27N 36°34' E 015°07'510.1
2017-Oct-15 04:00N 36°34' E 015°01'510.4
2017-Oct-15 03:30N 36°35' E 014°55'510.5
2017-Oct-15 03:00N 36°36' E 014°48'510.4
2017-Oct-15 02:30N 36°37' E 014°42'510.2
2017-Oct-15 02:00N 36°38' E 014°35'510.2
2017-Oct-15 01:30N 36°39' E 014°29'510.8
2017-Oct-15 01:00N 36°40' E 014°23'611.5
2017-Oct-15 00:30N 36°42' E 014°16'611.6
2017-Oct-15 00:00N 36°43' E 014°09'611.7
2017-Oct-14 23:30N 36°44' E 014°02'611.2
2017-Oct-14 23:00N 36°45' E 013°55'711.0
2017-Oct-14 22:22N 36°46' E 013°46'411.0
2017-Oct-14 22:00N 36°47' E 013°41'511.2
2017-Oct-14 21:30N 36°48' E 013°34'611.4
2017-Oct-14 21:00N 36°49' E 013°27'611.3
2017-Oct-14 20:27N 36°51' E 013°20'511.2
2017-Oct-14 20:00N 36°52' E 013°14'611.3
2017-Oct-14 19:27N 36°53' E 013°06'511.1
2017-Oct-14 18:57N 36°54' E 012°59'2311.3
2017-Oct-14 16:55N 36°59' E 012°31'  
Track history (hours):
 
Tides and Currents Weather Stations Pressure Air Temp Water Temp Dewpoint Dewpoint Depression Visibility Wind Speed Wind Dir Waves Ship Positions

Max Cavalier

Last reported at 2017-Oct-20 00:40 UTC. Time now 2017-Oct-22 12:11 UTC.
Position N 37°16' E 023°41'.

Length 147 m; draft 8.1 m.

Type: Cargo ship. MMSI: 249152000.

Date/timePositionNaut miles runAvg speedWind from/ knotsBaromVisibWave heightAir tempDewpointWater temp
2017-Oct-20 00:40N 37°16' E 023°41'210.7
2017-Oct-20 00:28N 37°18' E 023°42'810.9
2017-Oct-19 23:46N 37°25' E 023°44'311.3
2017-Oct-19 23:30N 37°28' E 023°44'611.3
2017-Oct-19 23:00N 37°34' E 023°44'611.2
2017-Oct-19 22:30N 37°40' E 023°42'611.2
2017-Oct-19 22:00N 37°45' E 023°39'510.8
2017-Oct-19 21:31N 37°50' E 023°37'510.9
2017-Oct-19 21:00N 37°55' E 023°37'3 5.0
2017-Oct-19 20:30N 37°57' E 023°36'0 0.0
2017-Oct-19 20:00N 37°57' E 023°36'0 0.0
2017-Oct-19 19:30N 37°57' E 023°36'0 0.0
2017-Oct-19 19:00N 37°57' E 023°36'0 0.0
2017-Oct-19 18:30N 37°57' E 023°36'0 0.0
2017-Oct-19 18:00N 37°57' E 023°36'0 0.0
2017-Oct-19 17:27N 37°57' E 023°36'0 0.0
2017-Oct-19 17:00N 37°57' E 023°36'0 0.0
2017-Oct-19 16:30N 37°57' E 023°36'0 0.0
2017-Oct-19 15:59N 37°57' E 023°36'0 0.0
2017-Oct-19 15:26N 37°57' E 023°36'0 0.0
2017-Oct-19 14:59N 37°57' E 023°36'0 0.0
2017-Oct-19 14:29N 37°57' E 023°36'0 0.0
2017-Oct-19 13:56N 37°57' E 023°36'0 0.0
2017-Oct-19 13:29N 37°57' E 023°36'0 0.0
2017-Oct-19 12:59N 37°57' E 023°36'0 0.0
2017-Oct-19 12:29N 37°57' E 023°36'0 0.0
2017-Oct-19 11:59N 37°57' E 023°36'0 0.0
2017-Oct-19 11:29N 37°57' E 023°36'0 0.0
2017-Oct-19 10:59N 37°57' E 023°36'0 0.0
2017-Oct-19 10:29N 37°57' E 023°36'0 0.0
2017-Oct-19 09:58N 37°57' E 023°36'0 0.0
2017-Oct-19 09:25N 37°57' E 023°36'0 0.0
2017-Oct-19 08:58N 37°57' E 023°36'0 0.0
2017-Oct-19 08:28N 37°57' E 023°36'0 0.0
2017-Oct-19 07:58N 37°57' E 023°36'0 0.0
2017-Oct-19 07:28N 37°57' E 023°36'0 0.0
2017-Oct-19 06:58N 37°57' E 023°36'0 0.0
2017-Oct-19 06:28N 37°57' E 023°36'0 0.0
2017-Oct-19 05:55N 37°57' E 023°36'0 0.0
2017-Oct-19 05:28N 37°57' E 023°36'0 0.0
2017-Oct-19 04:58N 37°57' E 023°36'0 0.0
2017-Oct-19 04:28N 37°57' E 023°36'0 0.0
2017-Oct-19 04:00N 37°57' E 023°36'0 0.0
2017-Oct-19 03:30N 37°57' E 023°36'0 0.0
2017-Oct-19 02:57N 37°57' E 023°36'0 0.0
2017-Oct-19 02:30N 37°57' E 023°36'0 0.0
2017-Oct-19 02:00N 37°57' E 023°36'0 0.0
2017-Oct-19 01:30N 37°57' E 023°36'0 0.0
2017-Oct-19 01:00N 37°57' E 023°36'0 0.0
2017-Oct-19 00:30N 37°57' E 023°36'0 0.0
2017-Oct-18 23:57N 37°57' E 023°36'0 0.0
2017-Oct-18 23:30N 37°57' E 023°36'0 0.0
2017-Oct-18 23:00N 37°57' E 023°36'0 0.0
2017-Oct-18 22:30N 37°57' E 023°36'0 0.0
2017-Oct-18 22:00N 37°57' E 023°36'0 0.0
2017-Oct-18 21:30N 37°57' E 023°36'0 0.0
2017-Oct-18 20:59N 37°57' E 023°36'0 0.0
2017-Oct-18 20:29N 37°57' E 023°36'0 0.0
2017-Oct-18 19:59N 37°57' E 023°36'0 0.0
2017-Oct-18 19:29N 37°57' E 023°36'0 0.0
2017-Oct-18 18:59N 37°57' E 023°36'0 0.0
2017-Oct-18 18:29N 37°57' E 023°36'0 0.0
2017-Oct-18 17:59N 37°57' E 023°36'0 0.0
2017-Oct-18 17:29N 37°57' E 023°36'0 0.0
2017-Oct-18 16:59N 37°57' E 023°36'0 0.0
2017-Oct-18 16:30N 37°57' E 023°36'2 3.8
2017-Oct-18 16:00N 37°56' E 023°36'1 1.7
2017-Oct-18 15:30N 37°55' E 023°35'1 2.6
2017-Oct-18 15:00N 37°54' E 023°34'2 1.8
2017-Oct-18 13:59N 37°53' E 023°32'0 0.1
2017-Oct-18 13:29N 37°53' E 023°32'0 0.0
2017-Oct-18 12:59N 37°53' E 023°32'0 0.0
2017-Oct-18 12:29N 37°53' E 023°32'0 0.0
2017-Oct-18 11:59N 37°53' E 023°32'0 0.0
2017-Oct-18 11:29N 37°53' E 023°32'0 0.0
2017-Oct-18 10:59N 37°53' E 023°32'0 0.0
2017-Oct-18 10:29N 37°53' E 023°32'0 0.3
2017-Oct-18 09:58N 37°53' E 023°32'0 0.0
2017-Oct-18 09:30N 37°53' E 023°32'0 0.0
2017-Oct-18 08:51N 37°53' E 023°32'0 0.1
2017-Oct-18 08:30N 37°53' E 023°32'0 0.1
2017-Oct-18 07:59N 37°53' E 023°32'0 0.0
2017-Oct-18 07:30N 37°53' E 023°32'0 0.0
2017-Oct-18 07:00N 37°53' E 023°32'0 0.1
2017-Oct-18 06:29N 37°53' E 023°32'0 0.1
2017-Oct-18 06:00N 37°53' E 023°32'0 0.0
2017-Oct-18 05:29N 37°53' E 023°32'0 0.1
2017-Oct-18 04:58N 37°53' E 023°32'0 0.1
2017-Oct-18 04:28N 37°53' E 023°32'0 0.0
2017-Oct-18 03:59N 37°53' E 023°32'0 0.0
2017-Oct-18 03:30N 37°53' E 023°32'0 0.0
2017-Oct-18 03:00N 37°53' E 023°32'0 0.0
2017-Oct-18 02:28N 37°53' E 023°32'0 0.1
2017-Oct-18 01:59N 37°53' E 023°32'0 0.1
2017-Oct-18 01:29N 37°53' E 023°32'0 0.1
2017-Oct-18 01:01N 37°53' E 023°32'0 0.0
2017-Oct-18 00:28N 37°53' E 023°32'0 0.0
2017-Oct-17 23:59N 37°53' E 023°32'0 0.0
2017-Oct-17 23:29N 37°53' E 023°32'0 0.1
2017-Oct-17 22:58N 37°53' E 023°32'0 0.0
2017-Oct-17 22:29N 37°53' E 023°32'0 0.1
2017-Oct-17 21:58N 37°53' E 023°32'0 0.0
2017-Oct-17 21:29N 37°53' E 023°32'0 0.0
2017-Oct-17 20:59N 37°53' E 023°32'0 0.0
2017-Oct-17 20:29N 37°53' E 023°32'0 0.0
2017-Oct-17 20:00N 37°53' E 023°32'0 0.0
2017-Oct-17 19:28N 37°53' E 023°32'0 0.0
2017-Oct-17 19:00N 37°53' E 023°32'0 0.1
2017-Oct-17 18:30N 37°53' E 023°32'0 0.0
2017-Oct-17 18:00N 37°53' E 023°32'0 0.1
2017-Oct-17 17:30N 37°53' E 023°32'0 0.0
2017-Oct-17 17:00N 37°53' E 023°32'0 0.0
2017-Oct-17 16:28N 37°53' E 023°32'0 0.0
2017-Oct-17 15:56N 37°53' E 023°32'0 0.0
2017-Oct-17 15:30N 37°53' E 023°32'0 0.0
2017-Oct-17 14:55N 37°53' E 023°32'0 0.1
2017-Oct-17 14:30N 37°53' E 023°32'0 0.0
2017-Oct-17 14:01N 37°53' E 023°32'0 0.1
2017-Oct-17 13:28N 37°53' E 023°32'0 0.1
2017-Oct-17 12:58N 37°53' E 023°32'0 0.0
2017-Oct-17 12:30N 37°53' E 023°32'0 0.0
2017-Oct-17 11:58N 37°53' E 023°32'0 0.1
2017-Oct-17 11:30N 37°53' E 023°32'0 0.0
2017-Oct-17 10:58N 37°53' E 023°32'0 0.1
2017-Oct-17 10:29N 37°53' E 023°32'0 0.0
2017-Oct-17 10:00N 37°53' E 023°32'0 0.0
2017-Oct-17 09:29N 37°53' E 023°32'0 0.0
2017-Oct-17 08:58N 37°53' E 023°32'0 0.0
2017-Oct-17 08:30N 37°53' E 023°32'0 0.1
2017-Oct-17 08:00N 37°53' E 023°32'0 0.1
2017-Oct-17 07:28N 37°53' E 023°32'0 0.1
2017-Oct-17 06:58N 37°53' E 023°32'0 0.0
2017-Oct-17 06:29N 37°53' E 023°32'0 0.1
2017-Oct-17 06:00N 37°53' E 023°32'0 0.5
2017-Oct-17 05:30N 37°53' E 023°32'2 4.6
2017-Oct-17 05:00N 37°53' E 023°35'4 7.5
2017-Oct-17 04:30N 37°51' E 023°39'5 9.8
2017-Oct-17 04:00N 37°46' E 023°42'5 9.7
2017-Oct-17 03:30N 37°42' E 023°44'5 9.2
2017-Oct-17 03:00N 37°38' E 023°45'5 9.2
2017-Oct-17 02:30N 37°33' E 023°45'404 9.1
2017-Oct-15 05:53N 36°33' E 015°24'4 9.9
2017-Oct-15 05:29N 36°33' E 015°20'510.1
2017-Oct-15 05:00N 36°33' E 015°13'610.1
2017-Oct-15 04:27N 36°34' E 015°07'510.1
2017-Oct-15 04:00N 36°34' E 015°01'510.4
2017-Oct-15 03:30N 36°35' E 014°55'510.5
2017-Oct-15 03:00N 36°36' E 014°48'510.4
2017-Oct-15 02:30N 36°37' E 014°42'510.2
2017-Oct-15 02:00N 36°38' E 014°35'510.2
2017-Oct-15 01:30N 36°39' E 014°29'510.8
2017-Oct-15 01:00N 36°40' E 014°23'611.5
2017-Oct-15 00:30N 36°42' E 014°16'611.6
2017-Oct-15 00:00N 36°43' E 014°09'611.7
2017-Oct-14 23:30N 36°44' E 014°02'611.2
2017-Oct-14 23:00N 36°45' E 013°55'711.0
2017-Oct-14 22:22N 36°46' E 013°46'411.0
2017-Oct-14 22:00N 36°47' E 013°41'511.2
2017-Oct-14 21:30N 36°48' E 013°34'611.4
2017-Oct-14 21:00N 36°49' E 013°27'611.3
2017-Oct-14 20:27N 36°51' E 013°20'511.2
2017-Oct-14 20:00N 36°52' E 013°14'611.3
2017-Oct-14 19:27N 36°53' E 013°06'511.1
2017-Oct-14 18:57N 36°54' E 012°59'2311.3
2017-Oct-14 16:55N 36°59' E 012°31'  

Dump ship's entire track history